sensor_id;sensor_type;location;lat;lon;timestamp;pressure;altitude;pressure_sealevel;temperature;humidity
56721;BME280;53183;47.412;18.884;2023-05-23T00:02:14;98981.41;;;14.66;100.00
56721;BME280;53183;47.412;18.884;2023-05-23T00:04:42;98981.16;;;14.69;100.00
56721;BME280;53183;47.412;18.884;2023-05-23T00:07:10;98977.16;;;14.86;100.00
56721;BME280;53183;47.412;18.884;2023-05-23T00:09:37;98981.50;;;14.87;100.00
56721;BME280;53183;47.412;18.884;2023-05-23T00:12:05;98977.88;;;14.76;100.00
56721;BME280;53183;47.412;18.884;2023-05-23T00:14:33;98984.81;;;14.68;100.00
56721;BME280;53183;47.412;18.884;2023-05-23T00:17:01;98974.28;;;14.66;100.00
56721;BME280;53183;47.412;18.884;2023-05-23T00:19:28;98972.59;;;14.65;100.00
56721;BME280;53183;47.412;18.884;2023-05-23T00:21:56;98973.56;;;14.64;100.00
56721;BME280;53183;47.412;18.884;2023-05-23T00:24:24;98968.81;;;14.57;100.00
56721;BME280;53183;47.412;18.884;2023-05-23T00:26:52;98972.56;;;14.54;100.00
56721;BME280;53183;47.412;18.884;2023-05-23T00:29:19;98971.84;;;14.52;100.00
56721;BME280;53183;47.412;18.884;2023-05-23T00:31:46;98973.69;;;14.51;100.00
56721;BME280;53183;47.412;18.884;2023-05-23T00:34:15;98972.81;;;14.51;100.00
56721;BME280;53183;47.412;18.884;2023-05-23T00:36:44;98974.72;;;14.49;100.00
56721;BME280;53183;47.412;18.884;2023-05-23T00:39:14;98979.22;;;14.60;100.00
56721;BME280;53183;47.412;18.884;2023-05-23T00:41:49;98977.88;;;14.54;100.00
56721;BME280;53183;47.412;18.884;2023-05-23T00:44:19;98983.03;;;14.44;100.00
56721;BME280;53183;47.412;18.884;2023-05-23T00:46:54;98972.31;;;14.57;100.00
56721;BME280;53183;47.412;18.884;2023-05-23T00:49:24;98977.44;;;14.71;100.00
56721;BME280;53183;47.412;18.884;2023-05-23T00:51:54;98980.69;;;14.52;100.00
56721;BME280;53183;47.412;18.884;2023-05-23T00:54:25;98982.69;;;14.49;100.00
56721;BME280;53183;47.412;18.884;2023-05-23T00:56:54;98984.00;;;14.43;100.00
56721;BME280;53183;47.412;18.884;2023-05-23T00:59:23;98988.34;;;14.44;100.00
56721;BME280;53183;47.412;18.884;2023-05-23T01:01:51;98989.81;;;14.37;100.00
56721;BME280;53183;47.412;18.884;2023-05-23T01:04:21;98984.84;;;14.32;100.00
56721;BME280;53183;47.412;18.884;2023-05-23T01:06:56;98991.16;;;14.43;100.00
56721;BME280;53183;47.412;18.884;2023-05-23T01:09:24;98978.22;;;14.49;100.00
56721;BME280;53183;47.412;18.884;2023-05-23T01:14:50;98981.81;;;14.26;100.00
56721;BME280;53183;47.412;18.884;2023-05-23T01:17:30;98974.56;;;14.28;100.00
56721;BME280;53183;47.412;18.884;2023-05-23T01:20:07;98970.97;;;14.40;100.00
56721;BME280;53183;47.412;18.884;2023-05-23T01:22:48;98963.34;;;14.36;100.00
56721;BME280;53183;47.412;18.884;2023-05-23T01:28:13;98960.91;;;14.21;100.00
56721;BME280;53183;47.412;18.884;2023-05-23T01:30:43;98954.88;;;14.19;100.00
56721;BME280;53183;47.412;18.884;2023-05-23T01:33:13;98957.75;;;14.16;100.00
56721;BME280;53183;47.412;18.884;2023-05-23T01:35:43;98953.75;;;14.11;100.00
56721;BME280;53183;47.412;18.884;2023-05-23T01:38:10;98951.25;;;14.09;100.00
56721;BME280;53183;47.412;18.884;2023-05-23T01:40:38;98949.78;;;14.05;100.00
56721;BME280;53183;47.412;18.884;2023-05-23T01:43:05;98948.31;;;14.01;100.00
56721;BME280;53183;47.412;18.884;2023-05-23T01:45:33;98938.03;;;13.96;100.00
56721;BME280;53183;47.412;18.884;2023-05-23T01:48:02;98943.34;;;13.96;100.00
56721;BME280;53183;47.412;18.884;2023-05-23T01:50:32;98945.16;;;13.96;100.00
56721;BME280;53183;47.412;18.884;2023-05-23T01:53:00;98950.72;;;13.93;100.00
56721;BME280;53183;47.412;18.884;2023-05-23T01:55:27;98951.66;;;13.92;100.00
56721;BME280;53183;47.412;18.884;2023-05-23T01:57:56;98946.47;;;13.90;100.00
56721;BME280;53183;47.412;18.884;2023-05-23T02:00:24;98944.66;;;13.91;100.00
56721;BME280;53183;47.412;18.884;2023-05-23T02:02:51;98942.75;;;14.04;100.00
56721;BME280;53183;47.412;18.884;2023-05-23T02:05:19;98947.00;;;14.06;100.00
56721;BME280;53183;47.412;18.884;2023-05-23T02:07:46;98939.16;;;14.05;100.00
56721;BME280;53183;47.412;18.884;2023-05-23T02:10:16;98943.97;;;14.00;100.00
56721;BME280;53183;47.412;18.884;2023-05-23T02:12:43;98940.81;;;13.95;100.00
56721;BME280;53183;47.412;18.884;2023-05-23T02:15:10;98939.13;;;13.94;100.00
56721;BME280;53183;47.412;18.884;2023-05-23T02:17:38;98941.91;;;13.92;100.00
56721;BME280;53183;47.412;18.884;2023-05-23T02:20:06;98942.53;;;14.07;100.00
56721;BME280;53183;47.412;18.884;2023-05-23T02:22:34;98941.06;;;14.03;100.00
56721;BME280;53183;47.412;18.884;2023-05-23T02:25:01;98934.91;;;14.02;100.00
56721;BME280;53183;47.412;18.884;2023-05-23T02:27:28;98941.53;;;13.97;100.00
56721;BME280;53183;47.412;18.884;2023-05-23T02:29:56;98938.28;;;13.93;100.00
56721;BME280;53183;47.412;18.884;2023-05-23T02:32:23;98935.97;;;13.89;100.00
56721;BME280;53183;47.412;18.884;2023-05-23T02:34:50;98933.81;;;13.94;100.00
56721;BME280;53183;47.412;18.884;2023-05-23T02:37:19;98932.22;;;13.91;100.00
56721;BME280;53183;47.412;18.884;2023-05-23T02:39:46;98929.94;;;13.87;100.00
56721;BME280;53183;47.412;18.884;2023-05-23T02:42:14;98934.72;;;13.81;100.00
56721;BME280;53183;47.412;18.884;2023-05-23T02:44:41;98935.47;;;13.83;100.00
56721;BME280;53183;47.412;18.884;2023-05-23T02:47:08;98931.22;;;13.81;100.00
56721;BME280;53183;47.412;18.884;2023-05-23T02:49:36;98930.28;;;13.82;100.00
56721;BME280;53183;47.412;18.884;2023-05-23T02:52:05;98928.34;;;13.84;100.00
56721;BME280;53183;47.412;18.884;2023-05-23T02:54:32;98925.81;;;13.82;100.00
56721;BME280;53183;47.412;18.884;2023-05-23T02:56:59;98923.88;;;13.84;100.00
56721;BME280;53183;47.412;18.884;2023-05-23T02:59:28;98918.09;;;13.79;100.00
56721;BME280;53183;47.412;18.884;2023-05-23T03:01:55;98927.72;;;13.80;100.00
56721;BME280;53183;47.412;18.884;2023-05-23T03:04:23;98917.63;;;13.86;100.00
56721;BME280;53183;47.412;18.884;2023-05-23T03:06:50;98919.91;;;13.90;100.00
56721;BME280;53183;47.412;18.884;2023-05-23T03:09:20;98920.50;;;13.82;100.00
56721;BME280;53183;47.412;18.884;2023-05-23T03:11:48;98922.56;;;13.79;100.00
56721;BME280;53183;47.412;18.884;2023-05-23T03:14:16;98928.72;;;13.79;100.00
56721;BME280;53183;47.412;18.884;2023-05-23T03:16:43;98932.94;;;13.82;100.00
56721;BME280;53183;47.412;18.884;2023-05-23T03:19:11;98926.81;;;13.93;100.00
56721;BME280;53183;47.412;18.884;2023-05-23T03:21:38;98925.84;;;13.94;100.00
56721;BME280;53183;47.412;18.884;2023-05-23T03:24:06;98934.31;;;13.99;100.00
56721;BME280;53183;47.412;18.884;2023-05-23T03:26:33;98935.53;;;14.06;100.00
56721;BME280;53183;47.412;18.884;2023-05-23T03:29:01;98937.25;;;14.18;100.00
56721;BME280;53183;47.412;18.884;2023-05-23T03:31:28;98942.56;;;14.29;100.00
56721;BME280;53183;47.412;18.884;2023-05-23T03:33:55;98924.94;;;14.28;100.00
56721;BME280;53183;47.412;18.884;2023-05-23T03:36:22;98927.34;;;14.31;100.00
56721;BME280;53183;47.412;18.884;2023-05-23T03:38:51;98922.62;;;14.35;100.00
56721;BME280;53183;47.412;18.884;2023-05-23T03:41:19;98926.84;;;14.38;100.00
56721;BME280;53183;47.412;18.884;2023-05-23T03:43:48;98922.03;;;14.43;100.00
56721;BME280;53183;47.412;18.884;2023-05-23T03:46:15;98931.34;;;14.48;100.00
56721;BME280;53183;47.412;18.884;2023-05-23T03:48:42;98919.37;;;14.54;100.00
56721;BME280;53183;47.412;18.884;2023-05-23T03:51:10;98924.00;;;14.74;100.00
56721;BME280;53183;47.412;18.884;2023-05-23T03:53:39;98924.31;;;14.92;100.00
56721;BME280;53183;47.412;18.884;2023-05-23T03:56:07;98922.50;;;14.93;100.00
56721;BME280;53183;47.412;18.884;2023-05-23T03:58:34;98924.81;;;14.97;100.00
56721;BME280;53183;47.412;18.884;2023-05-23T04:01:03;98923.31;;;15.05;100.00
56721;BME280;53183;47.412;18.884;2023-05-23T04:03:31;98923.44;;;15.14;100.00
56721;BME280;53183;47.412;18.884;2023-05-23T04:06:00;98928.00;;;15.23;100.00
56721;BME280;53183;47.412;18.884;2023-05-23T04:08:27;98920.16;;;15.43;100.00
56721;BME280;53183;47.412;18.884;2023-05-23T04:10:56;98925.97;;;15.48;100.00
56721;BME280;53183;47.412;18.884;2023-05-23T04:13:23;98923.50;;;15.56;100.00
56721;BME280;53183;47.412;18.884;2023-05-23T04:15:53;98932.22;;;15.69;99.08
56721;BME280;53183;47.412;18.884;2023-05-23T04:18:23;98924.00;;;15.82;98.87
56721;BME280;53183;47.412;18.884;2023-05-23T04:20:50;98923.97;;;15.93;98.34
56721;BME280;53183;47.412;18.884;2023-05-23T04:23:17;98918.03;;;16.11;97.14
56721;BME280;53183;47.412;18.884;2023-05-23T04:25:45;98923.25;;;16.22;96.81
56721;BME280;53183;47.412;18.884;2023-05-23T04:28:14;98928.00;;;16.39;96.38
56721;BME280;53183;47.412;18.884;2023-05-23T04:30:43;98922.19;;;16.55;95.67
56721;BME280;53183;47.412;18.884;2023-05-23T04:33:13;98915.97;;;16.76;94.07
56721;BME280;53183;47.412;18.884;2023-05-23T04:35:40;98914.16;;;16.86;92.89
56721;BME280;53183;47.412;18.884;2023-05-23T04:38:08;98913.66;;;17.02;91.23
56721;BME280;53183;47.412;18.884;2023-05-23T04:40:36;98926.75;;;17.15;90.31
56721;BME280;53183;47.412;18.884;2023-05-23T04:43:03;98925.50;;;17.28;90.38
56721;BME280;53183;47.412;18.884;2023-05-23T04:45:31;98917.06;;;17.43;90.85
56721;BME280;53183;47.412;18.884;2023-05-23T04:47:58;98927.75;;;17.62;90.25
56721;BME280;53183;47.412;18.884;2023-05-23T04:50:26;98924.94;;;17.83;89.28
56721;BME280;53183;47.412;18.884;2023-05-23T04:52:54;98927.59;;;18.02;88.25
56721;BME280;53183;47.412;18.884;2023-05-23T04:55:22;98930.22;;;18.22;87.58
56721;BME280;53183;47.412;18.884;2023-05-23T04:57:50;98926.50;;;18.42;86.77
56721;BME280;53183;47.412;18.884;2023-05-23T05:00:17;98926.31;;;19.18;79.81
56721;BME280;53183;47.412;18.884;2023-05-23T05:02:45;98922.97;;;20.14;75.33
56721;BME280;53183;47.412;18.884;2023-05-23T05:05:12;98921.16;;;20.75;72.83
56721;BME280;53183;47.412;18.884;2023-05-23T05:07:39;98921.50;;;21.22;70.29
56721;BME280;53183;47.412;18.884;2023-05-23T05:10:08;98916.88;;;21.57;69.21
56721;BME280;53183;47.412;18.884;2023-05-23T05:12:43;98919.91;;;21.87;67.58
56721;BME280;53183;47.412;18.884;2023-05-23T05:15:14;98920.59;;;22.21;66.37
56721;BME280;53183;47.412;18.884;2023-05-23T05:17:44;98913.81;;;22.34;65.88
56721;BME280;53183;47.412;18.884;2023-05-23T05:20:16;98913.41;;;22.53;65.27
56721;BME280;53183;47.412;18.884;2023-05-23T05:22:43;98923.00;;;22.64;65.40
56721;BME280;53183;47.412;18.884;2023-05-23T05:25:10;98923.16;;;22.62;64.66
56721;BME280;53183;47.412;18.884;2023-05-23T05:27:38;98923.34;;;22.61;64.96
56721;BME280;53183;47.412;18.884;2023-05-23T05:30:07;98922.03;;;22.48;65.63
56721;BME280;53183;47.412;18.884;2023-05-23T05:32:36;98924.88;;;22.47;64.70
56721;BME280;53183;47.412;18.884;2023-05-23T05:35:04;98920.97;;;22.66;63.78
56721;BME280;53183;47.412;18.884;2023-05-23T05:37:34;98923.16;;;22.70;63.11
56721;BME280;53183;47.412;18.884;2023-05-23T05:40:01;98919.37;;;22.88;62.99
56721;BME280;53183;47.412;18.884;2023-05-23T05:42:33;98918.63;;;23.10;61.19
56721;BME280;53183;47.412;18.884;2023-05-23T05:45:01;98925.25;;;23.23;60.95
56721;BME280;53183;47.412;18.884;2023-05-23T05:47:29;98915.38;;;23.15;60.45
56721;BME280;53183;47.412;18.884;2023-05-23T05:49:56;98914.47;;;23.54;59.98
56721;BME280;53183;47.412;18.884;2023-05-23T05:52:24;98919.66;;;24.01;59.21
56721;BME280;53183;47.412;18.884;2023-05-23T05:54:51;98918.59;;;23.87;59.89
56721;BME280;53183;47.412;18.884;2023-05-23T05:57:19;98917.53;;;23.51;59.82
56721;BME280;53183;47.412;18.884;2023-05-23T05:59:46;98910.63;;;23.48;61.60
56721;BME280;53183;47.412;18.884;2023-05-23T06:02:16;98915.06;;;23.64;62.55
56721;BME280;53183;47.412;18.884;2023-05-23T06:04:44;98915.66;;;23.51;61.77
56721;BME280;53183;47.412;18.884;2023-05-23T06:07:11;98915.38;;;23.46;60.84
56721;BME280;53183;47.412;18.884;2023-05-23T06:09:38;98913.56;;;23.61;61.32
56721;BME280;53183;47.412;18.884;2023-05-23T06:12:06;98915.31;;;23.54;62.75
56721;BME280;53183;47.412;18.884;2023-05-23T06:14:34;98915.22;;;23.71;61.22
56721;BME280;53183;47.412;18.884;2023-05-23T06:17:02;98912.44;;;24.17;61.02
56721;BME280;53183;47.412;18.884;2023-05-23T06:19:29;98912.44;;;24.17;59.09
56721;BME280;53183;47.412;18.884;2023-05-23T06:21:57;98912.94;;;24.35;59.02
56721;BME280;53183;47.412;18.884;2023-05-23T06:24:24;98914.22;;;24.24;59.29
56721;BME280;53183;47.412;18.884;2023-05-23T06:26:52;98917.28;;;24.06;60.13
56721;BME280;53183;47.412;18.884;2023-05-23T06:29:19;98911.97;;;23.75;60.34
56721;BME280;53183;47.412;18.884;2023-05-23T06:31:46;98918.59;;;23.64;62.10
56721;BME280;53183;47.412;18.884;2023-05-23T06:34:13;98917.53;;;23.51;61.34
56721;BME280;53183;47.412;18.884;2023-05-23T06:36:41;98907.28;;;23.46;61.34
56721;BME280;53183;47.412;18.884;2023-05-23T06:39:08;98906.50;;;23.37;62.54
56721;BME280;53183;47.412;18.884;2023-05-23T06:41:37;98913.03;;;23.66;61.53
56721;BME280;53183;47.412;18.884;2023-05-23T06:44:04;98909.94;;;24.30;59.26
56721;BME280;53183;47.412;18.884;2023-05-23T06:46:31;98912.56;;;24.68;58.69
56721;BME280;53183;47.412;18.884;2023-05-23T06:49:00;98916.50;;;24.80;57.04
56721;BME280;53183;47.412;18.884;2023-05-23T06:51:41;98907.25;;;24.74;57.76
56721;BME280;53183;47.412;18.884;2023-05-23T06:54:08;98909.75;;;24.31;60.17
56721;BME280;53183;47.412;18.884;2023-05-23T06:56:36;98904.34;;;24.31;59.02
56721;BME280;53183;47.412;18.884;2023-05-23T06:59:04;98909.06;;;24.52;57.06
56721;BME280;53183;47.412;18.884;2023-05-23T07:01:31;98909.78;;;24.76;56.46
56721;BME280;53183;47.412;18.884;2023-05-23T07:03:59;98913.44;;;24.68;56.36
56721;BME280;53183;47.412;18.884;2023-05-23T07:06:26;98908.66;;;24.85;55.28
56721;BME280;53183;47.412;18.884;2023-05-23T07:08:53;98904.94;;;25.01;55.50
56721;BME280;53183;47.412;18.884;2023-05-23T07:11:21;98906.34;;;25.33;54.99
56721;BME280;53183;47.412;18.884;2023-05-23T07:13:49;98911.50;;;25.49;53.17
56721;BME280;53183;47.412;18.884;2023-05-23T07:16:17;98900.25;;;25.67;53.88
56721;BME280;53183;47.412;18.884;2023-05-23T07:18:46;98899.97;;;26.05;53.13
56721;BME280;53183;47.412;18.884;2023-05-23T07:21:13;98899.62;;;26.84;50.37
56721;BME280;53183;47.412;18.884;2023-05-23T07:23:41;98895.37;;;27.78;49.08
56721;BME280;53183;47.412;18.884;2023-05-23T07:26:09;98885.66;;;28.68;46.74
56721;BME280;53183;47.412;18.884;2023-05-23T07:28:37;98896.53;;;29.65;43.23
56721;BME280;53183;47.412;18.884;2023-05-23T07:31:06;98902.16;;;29.95;43.24
56721;BME280;53183;47.412;18.884;2023-05-23T07:33:36;98898.28;;;30.53;42.05
56721;BME280;53183;47.412;18.884;2023-05-23T07:36:03;98902.72;;;30.91;39.98
56721;BME280;53183;47.412;18.884;2023-05-23T07:38:31;98898.22;;;31.33;39.47
56721;BME280;53183;47.412;18.884;2023-05-23T07:40:58;98901.19;;;31.85;38.33
56721;BME280;53183;47.412;18.884;2023-05-23T07:43:38;98909.69;;;31.65;39.34
56721;BME280;53183;47.412;18.884;2023-05-23T07:46:06;98905.22;;;31.83;38.42
56721;BME280;53183;47.412;18.884;2023-05-23T07:48:34;98897.78;;;31.90;38.89
56721;BME280;53183;47.412;18.884;2023-05-23T07:51:02;98897.63;;;31.85;37.99
56721;BME280;53183;47.412;18.884;2023-05-23T07:53:30;98896.87;;;31.36;39.53
56721;BME280;53183;47.412;18.884;2023-05-23T07:55:57;98905.00;;;31.24;39.37
56721;BME280;53183;47.412;18.884;2023-05-23T07:58:25;98891.31;;;31.42;38.96
56721;BME280;53183;47.412;18.884;2023-05-23T08:00:52;98894.56;;;31.21;39.83
56721;BME280;53183;47.412;18.884;2023-05-23T08:03:22;98894.16;;;30.25;41.58
56721;BME280;53183;47.412;18.884;2023-05-23T08:05:51;98898.53;;;30.51;42.04
56721;BME280;53183;47.412;18.884;2023-05-23T08:08:18;98901.94;;;31.02;40.01
56721;BME280;53183;47.412;18.884;2023-05-23T08:10:45;98888.97;;;29.67;41.40
56721;BME280;53183;47.412;18.884;2023-05-23T08:13:14;98898.09;;;27.91;44.86
56721;BME280;53183;47.412;18.884;2023-05-23T08:15:43;98887.13;;;29.23;44.37
56721;BME280;53183;47.412;18.884;2023-05-23T08:18:12;98888.84;;;28.25;46.97
56721;BME280;53183;47.412;18.884;2023-05-23T08:20:40;98895.53;;;29.14;45.90
56721;BME280;53183;47.412;18.884;2023-05-23T08:23:08;98893.50;;;29.41;43.61
56721;BME280;53183;47.412;18.884;2023-05-23T08:25:36;98888.63;;;30.07;43.38
56721;BME280;53183;47.412;18.884;2023-05-23T08:28:03;98893.44;;;30.11;44.57
56721;BME280;53183;47.412;18.884;2023-05-23T08:30:32;98896.78;;;30.75;43.58
56721;BME280;53183;47.412;18.884;2023-05-23T08:33:00;98892.00;;;30.71;42.42
56721;BME280;53183;47.412;18.884;2023-05-23T08:35:31;98895.56;;;30.34;42.57
56721;BME280;53183;47.412;18.884;2023-05-23T08:38:05;98893.44;;;30.55;42.31
56721;BME280;53183;47.412;18.884;2023-05-23T08:40:35;98899.38;;;30.89;40.98
56721;BME280;53183;47.412;18.884;2023-05-23T08:43:03;98892.25;;;30.88;41.39
56721;BME280;53183;47.412;18.884;2023-05-23T08:45:31;98894.28;;;31.11;40.72
56721;BME280;53183;47.412;18.884;2023-05-23T08:48:01;98900.28;;;30.82;40.64
56721;BME280;53183;47.412;18.884;2023-05-23T08:50:36;98894.47;;;30.10;41.50
56721;BME280;53183;47.412;18.884;2023-05-23T08:53:07;98892.56;;;29.61;42.40
56721;BME280;53183;47.412;18.884;2023-05-23T08:55:37;98894.25;;;30.12;42.36
56721;BME280;53183;47.412;18.884;2023-05-23T08:58:04;98898.59;;;30.45;42.19
56721;BME280;53183;47.412;18.884;2023-05-23T09:00:34;98889.16;;;30.22;42.51
56721;BME280;53183;47.412;18.884;2023-05-23T09:03:01;98902.09;;;30.02;41.31
56721;BME280;53183;47.412;18.884;2023-05-23T09:05:36;98893.53;;;29.98;42.26
56721;BME280;53183;47.412;18.884;2023-05-23T09:08:04;98896.91;;;30.44;42.71
56721;BME280;53183;47.412;18.884;2023-05-23T09:10:31;98893.94;;;30.27;40.70
56721;BME280;53183;47.412;18.884;2023-05-23T09:12:59;98897.91;;;30.49;40.99
56721;BME280;53183;47.412;18.884;2023-05-23T09:15:29;98901.25;;;30.51;40.55
56721;BME280;53183;47.412;18.884;2023-05-23T09:17:59;98897.69;;;31.06;40.60
56721;BME280;53183;47.412;18.884;2023-05-23T09:20:32;98899.91;;;30.79;41.36
56721;BME280;53183;47.412;18.884;2023-05-23T09:23:04;98901.69;;;30.48;40.72
56721;BME280;53183;47.412;18.884;2023-05-23T09:25:34;98897.75;;;30.62;41.66
56721;BME280;53183;47.412;18.884;2023-05-23T09:28:03;98895.34;;;30.91;41.51
56721;BME280;53183;47.412;18.884;2023-05-23T09:30:33;98900.34;;;30.07;42.64
56721;BME280;53183;47.412;18.884;2023-05-23T09:33:00;98898.53;;;30.51;42.08
56721;BME280;53183;47.412;18.884;2023-05-23T09:35:32;98892.66;;;30.66;41.51
56721;BME280;53183;47.412;18.884;2023-05-23T09:37:59;98898.06;;;30.73;40.84
56721;BME280;53183;47.412;18.884;2023-05-23T09:40:30;98890.28;;;31.25;40.30
56721;BME280;53183;47.412;18.884;2023-05-23T09:43:03;98886.13;;;31.22;39.65
56721;BME280;53183;47.412;18.884;2023-05-23T09:45:31;98885.81;;;31.30;39.87
56721;BME280;53183;47.412;18.884;2023-05-23T09:47:59;98886.84;;;31.48;39.51
56721;BME280;53183;47.412;18.884;2023-05-23T09:50:30;98883.44;;;31.04;39.65
56721;BME280;53183;47.412;18.884;2023-05-23T09:53:00;98876.06;;;31.23;39.23
56721;BME280;53183;47.412;18.884;2023-05-23T09:55:28;98880.09;;;31.50;38.71
56721;BME280;53183;47.412;18.884;2023-05-23T09:57:57;98883.09;;;31.30;40.49
56721;BME280;53183;47.412;18.884;2023-05-23T10:00:25;98875.72;;;31.31;40.19
56721;BME280;53183;47.412;18.884;2023-05-23T10:03:09;98870.34;;;31.24;39.41
56721;BME280;53183;47.412;18.884;2023-05-23T10:05:44;98881.81;;;31.33;40.25
56721;BME280;53183;47.412;18.884;2023-05-23T10:13:25;98876.88;;;32.54;36.78
56721;BME280;53183;47.412;18.884;2023-05-23T10:16:07;98878.13;;;32.87;38.64
56721;BME280;53183;47.412;18.884;2023-05-23T10:18:42;98873.03;;;31.73;38.96
56721;BME280;53183;47.412;18.884;2023-05-23T10:21:18;98872.16;;;30.45;40.11
56721;BME280;53183;47.412;18.884;2023-05-23T10:23:50;98872.87;;;30.77;40.29
56721;BME280;53183;47.412;18.884;2023-05-23T10:26:18;98856.69;;;31.24;38.68
56721;BME280;53183;47.412;18.884;2023-05-23T10:28:46;98862.00;;;30.89;38.88
56721;BME280;53183;47.412;18.884;2023-05-23T10:31:16;98859.53;;;31.90;37.32
56721;BME280;53183;47.412;18.884;2023-05-23T10:33:53;98857.28;;;31.98;37.01
56721;BME280;53183;47.412;18.884;2023-05-23T10:37:15;98855.47;;;32.28;38.36
56721;BME280;53183;47.412;18.884;2023-05-23T10:39:21;98856.22;;;31.46;39.39
56721;BME280;53183;47.412;18.884;2023-05-23T10:41:58;98852.28;;;30.75;40.93
56721;BME280;53183;47.412;18.884;2023-05-23T10:44:30;98851.03;;;30.77;41.77
56721;BME280;53183;47.412;18.884;2023-05-23T10:46:59;98846.59;;;31.43;40.20
56721;BME280;53183;47.412;18.884;2023-05-23T10:49:51;98848.72;;;32.07;39.44
56721;BME280;53183;47.412;18.884;2023-05-23T10:52:19;98849.19;;;32.04;38.38
56721;BME280;53183;47.412;18.884;2023-05-23T10:54:52;98843.25;;;32.18;38.29
56721;BME280;53183;47.412;18.884;2023-05-23T10:57:21;98848.28;;;32.74;37.53
56721;BME280;53183;47.412;18.884;2023-05-23T10:59:50;98840.97;;;33.03;35.46
56721;BME280;53183;47.412;18.884;2023-05-23T11:02:25;98845.44;;;33.21;35.52
56721;BME280;53183;47.412;18.884;2023-05-23T11:07:41;98844.56;;;33.20;33.37
56721;BME280;53183;47.412;18.884;2023-05-23T11:10:10;98832.06;;;32.84;33.00
56721;BME280;53183;47.412;18.884;2023-05-23T11:12:41;98831.72;;;32.52;32.58
56721;BME280;53183;47.412;18.884;2023-05-23T11:15:18;98833.88;;;31.07;33.76
56721;BME280;53183;47.412;18.884;2023-05-23T11:17:54;98823.34;;;30.92;34.37
56721;BME280;53183;47.412;18.884;2023-05-23T11:20:26;98827.19;;;31.87;33.20
56721;BME280;53183;47.412;18.884;2023-05-23T11:23:00;98824.22;;;31.88;35.26
56721;BME280;53183;47.412;18.884;2023-05-23T11:25:42;98815.91;;;31.95;34.26
56721;BME280;53183;47.412;18.884;2023-05-23T11:28:11;98814.47;;;32.28;32.11
56721;BME280;53183;47.412;18.884;2023-05-23T11:30:39;98811.37;;;32.47;32.07
56721;BME280;53183;47.412;18.884;2023-05-23T11:33:10;98807.47;;;32.08;33.24
56721;BME280;53183;47.412;18.884;2023-05-23T11:35:47;98810.34;;;31.90;34.51
56721;BME280;53183;47.412;18.884;2023-05-23T11:38:15;98817.31;;;31.86;33.10
56721;BME280;53183;47.412;18.884;2023-05-23T11:40:46;98806.13;;;32.58;32.93
56721;BME280;53183;47.412;18.884;2023-05-23T11:43:17;98797.66;;;33.00;30.61
56721;BME280;53183;47.412;18.884;2023-05-23T11:45:45;98797.69;;;33.16;31.74
56721;BME280;53183;47.412;18.884;2023-05-23T11:48:14;98794.25;;;31.82;32.81
56721;BME280;53183;47.412;18.884;2023-05-23T11:50:44;98792.69;;;31.08;34.02
56721;BME280;53183;47.412;18.884;2023-05-23T11:53:13;98795.94;;;30.50;36.05
56721;BME280;53183;47.412;18.884;2023-05-23T11:55:56;98782.34;;;30.32;36.70
56721;BME280;53183;47.412;18.884;2023-05-23T11:58:32;98774.19;;;31.11;34.25
56721;BME280;53183;47.412;18.884;2023-05-23T12:01:04;98764.66;;;31.43;33.80
56721;BME280;53183;47.412;18.884;2023-05-23T12:03:33;98772.28;;;31.53;33.53
56721;BME280;53183;47.412;18.884;2023-05-23T12:06:01;98765.75;;;32.13;34.06
56721;BME280;53183;47.412;18.884;2023-05-23T12:08:28;98762.50;;;31.34;33.86
56721;BME280;53183;47.412;18.884;2023-05-23T12:10:57;98754.69;;;31.49;33.15
56721;BME280;53183;47.412;18.884;2023-05-23T12:13:27;98745.53;;;31.78;33.57
56721;BME280;53183;47.412;18.884;2023-05-23T12:15:56;98744.94;;;31.41;33.72
56721;BME280;53183;47.412;18.884;2023-05-23T12:18:29;98736.03;;;31.81;32.35
56721;BME280;53183;47.412;18.884;2023-05-23T12:21:04;98738.25;;;32.31;31.99
56721;BME280;53183;47.412;18.884;2023-05-23T12:23:34;98741.91;;;32.37;32.66
56721;BME280;53183;47.412;18.884;2023-05-23T12:26:05;98736.03;;;32.16;33.06
56721;BME280;53183;47.412;18.884;2023-05-23T12:28:41;98726.81;;;31.94;33.44
56721;BME280;53183;47.412;18.884;2023-05-23T12:33:45;98719.78;;;32.10;33.44
56721;BME280;53183;47.412;18.884;2023-05-23T12:36:20;98728.22;;;31.38;33.93
56721;BME280;53183;47.412;18.884;2023-05-23T12:38:49;98723.13;;;30.69;34.04
56721;BME280;53183;47.412;18.884;2023-05-23T12:41:18;98716.56;;;30.89;33.30
56721;BME280;53183;47.412;18.884;2023-05-23T12:43:53;98720.81;;;31.26;33.35
56721;BME280;53183;47.412;18.884;2023-05-23T12:46:22;98717.41;;;31.43;31.83
56721;BME280;53183;47.412;18.884;2023-05-23T12:48:50;98711.34;;;31.41;32.48
56721;BME280;53183;47.412;18.884;2023-05-23T12:51:17;98706.03;;;32.33;30.53
56721;BME280;53183;47.412;18.884;2023-05-23T12:53:45;98709.81;;;31.68;30.11
56721;BME280;53183;47.412;18.884;2023-05-23T12:56:13;98709.91;;;31.85;31.21
56721;BME280;53183;47.412;18.884;2023-05-23T12:58:40;98709.19;;;30.77;32.90
56721;BME280;53183;47.412;18.884;2023-05-23T13:01:07;98703.50;;;30.79;32.89
56721;BME280;53183;47.412;18.884;2023-05-23T13:03:35;98699.59;;;31.40;32.19
56721;BME280;53183;47.412;18.884;2023-05-23T13:06:02;98692.78;;;32.02;31.11
